createdAt,value
2023-03-27T00:01:02.366Z,14.63
2023-03-27T00:03:34.521Z,15.00
2023-03-27T00:06:12.079Z,15.02
2023-03-27T00:08:46.474Z,15.55
2023-03-27T00:11:22.126Z,17.05
2023-03-27T00:13:54.883Z,16.60
2023-03-27T00:16:27.660Z,16.30
2023-03-27T00:19:00.514Z,15.85
2023-03-27T00:21:32.208Z,16.33
2023-03-27T00:24:06.201Z,16.33
2023-03-27T00:26:41.459Z,16.48
2023-03-27T00:29:13.545Z,17.30
2023-03-27T00:31:45.399Z,18.00
2023-03-27T00:34:17.100Z,16.67
2023-03-27T00:36:51.228Z,17.65
2023-03-27T00:39:23.791Z,18.20
2023-03-27T00:41:56.084Z,17.33
2023-03-27T00:44:34.919Z,16.70
2023-03-27T00:47:10.224Z,17.83
2023-03-27T00:49:42.754Z,16.85
2023-03-27T00:52:16.805Z,16.90
2023-03-27T00:54:52.186Z,16.52
2023-03-27T00:57:25.174Z,16.27
2023-03-27T01:00:00.614Z,15.40
2023-03-27T01:02:32.409Z,16.55
2023-03-27T01:05:04.861Z,14.73
2023-03-27T01:07:37.982Z,14.95
2023-03-27T01:10:12.067Z,16.00
2023-03-27T01:13:21.317Z,15.45
2023-03-27T01:16:05.731Z,16.27
2023-03-27T01:19:00.918Z,15.95
2023-03-27T01:21:51.865Z,15.75
2023-03-27T01:24:59.119Z,14.35
2023-03-27T01:27:53.934Z,16.55
2023-03-27T01:30:42.311Z,16.30
2023-03-27T01:33:50.468Z,15.98
2023-03-27T01:36:39.804Z,15.85
2023-03-27T01:39:18.851Z,17.45
2023-03-27T01:42:31.509Z,17.45
2023-03-27T01:45:10.934Z,16.67
2023-03-27T01:48:11.164Z,17.27
2023-03-27T01:50:48.699Z,15.40
2023-03-27T01:53:29.943Z,16.73
2023-03-27T01:56:10.605Z,16.40
2023-03-27T01:58:46.405Z,16.85
2023-03-27T02:01:28.314Z,14.98
2023-03-27T02:04:03.926Z,15.10
2023-03-27T02:06:44.316Z,16.08
2023-03-27T02:09:22.088Z,16.88
2023-03-27T02:12:01.816Z,15.05
2023-03-27T02:14:43.674Z,16.58
2023-03-27T02:17:19.202Z,16.98
2023-03-27T02:19:56.900Z,14.60
2023-03-27T02:22:37.590Z,14.70
2023-03-27T02:25:30.020Z,14.63
2023-03-27T02:28:19.907Z,13.45
2023-03-27T02:31:33.303Z,13.60
2023-03-27T02:34:35.427Z,13.40
2023-03-27T02:37:32.305Z,13.93
2023-03-27T02:40:40.419Z,13.82
2023-03-27T02:43:48.855Z,12.25
2023-03-27T02:46:36.763Z,12.93
2023-03-27T02:49:16.104Z,13.02
2023-03-27T02:51:54.280Z,14.98
2023-03-27T02:54:34.472Z,16.50
2023-03-27T02:57:21.818Z,15.23
2023-03-27T03:00:33.131Z,17.20
2023-03-27T03:03:44.522Z,16.85
2023-03-27T03:06:34.706Z,17.80
2023-03-27T03:09:06.747Z,19.58
2023-03-27T03:11:48.389Z,17.73
2023-03-27T03:14:25.507Z,19.77
2023-03-27T03:16:57.305Z,19.88
2023-03-27T03:19:29.086Z,18.20
2023-03-27T03:22:01.723Z,16.75
2023-03-27T03:24:42.007Z,16.08
2023-03-27T03:27:15.423Z,14.38
2023-03-27T03:30:00.774Z,14.35
2023-03-27T03:32:34.079Z,10.65
2023-03-27T03:35:08.956Z,8.85
2023-03-27T03:37:41.700Z,8.98
2023-03-27T03:40:18.875Z,8.80
2023-03-27T03:42:52.861Z,8.20
2023-03-27T03:45:29.123Z,9.13
2023-03-27T03:48:01.148Z,9.35
2023-03-27T03:50:33.071Z,7.65
2023-03-27T03:53:05.236Z,6.43
2023-03-27T03:55:37.442Z,7.35
2023-03-27T03:58:09.842Z,6.10
2023-03-27T04:00:44.546Z,4.90
2023-03-27T04:03:32.407Z,4.57
2023-03-27T04:08:37.894Z,2.97
2023-03-27T04:11:10.268Z,1.90
2023-03-27T04:14:03.971Z,1.67
2023-03-27T04:16:41.728Z,1.17
2023-03-27T04:19:23.928Z,1.13
2023-03-27T04:22:02.580Z,1.20
2023-03-27T04:24:38.744Z,1.40
2023-03-27T04:27:13.862Z,1.25
2023-03-27T04:30:10.233Z,1.92
2023-03-27T04:33:00.282Z,1.48
2023-03-27T04:36:05.967Z,1.60
2023-03-27T04:38:48.018Z,1.73
2023-03-27T04:41:21.384Z,1.90
2023-03-27T04:43:55.800Z,1.80
2023-03-27T04:46:28.492Z,3.05
2023-03-27T04:49:10.635Z,1.65
2023-03-27T04:52:00.832Z,1.65
2023-03-27T04:54:34.628Z,2.20
2023-03-27T04:57:07.850Z,1.60
2023-03-27T04:59:39.812Z,7.53
2023-03-27T05:02:37.685Z,1.35
2023-03-27T05:05:22.094Z,1.77
2023-03-27T05:07:55.776Z,1.50
2023-03-27T05:10:29.942Z,2.25
2023-03-27T05:13:01.791Z,1.90
2023-03-27T05:15:33.781Z,1.80
2023-03-27T05:18:09.139Z,1.70
2023-03-27T05:20:43.889Z,1.75
2023-03-27T05:23:16.574Z,1.80
2023-03-27T05:25:59.913Z,1.60
2023-03-27T05:28:42.472Z,1.67
2023-03-27T05:31:14.158Z,1.80
2023-03-27T05:34:02.757Z,1.88
2023-03-27T05:36:37.553Z,1.30
2023-03-27T05:39:09.363Z,1.80
2023-03-27T05:42:01.007Z,1.67
2023-03-27T05:44:32.657Z,1.48
2023-03-27T05:47:07.380Z,1.70
2023-03-27T05:49:41.250Z,1.80
2023-03-27T05:52:16.936Z,1.90
2023-03-27T05:54:50.235Z,1.70
2023-03-27T05:57:22.023Z,1.77
2023-03-27T06:00:00.271Z,2.00
2023-03-27T06:02:32.082Z,1.77
2023-03-27T06:05:10.895Z,2.00
2023-03-27T06:07:45.335Z,1.88
2023-03-27T06:10:18.306Z,2.60
2023-03-27T06:13:16.342Z,2.45
2023-03-27T06:18:51.723Z,1.83
2023-03-27T06:21:24.779Z,1.83
2023-03-27T06:24:02.705Z,1.30
2023-03-27T06:26:34.763Z,1.70
2023-03-27T06:29:08.769Z,2.25
2023-03-27T06:31:44.793Z,2.00
2023-03-27T06:34:27.787Z,2.05
2023-03-27T06:37:37.232Z,2.10
2023-03-27T06:40:10.421Z,1.85
2023-03-27T06:42:52.147Z,2.27
2023-03-27T06:45:46.218Z,1.90
2023-03-27T06:48:22.076Z,2.13
2023-03-27T06:51:00.506Z,2.10
2023-03-27T06:53:37.902Z,2.20
2023-03-27T06:56:10.316Z,2.55
2023-03-27T06:59:01.300Z,2.40
2023-03-27T07:01:33.381Z,1.85
2023-03-27T07:04:23.794Z,2.15
2023-03-27T07:07:04.333Z,2.00
2023-03-27T07:09:40.912Z,2.13
2023-03-27T07:12:13.989Z,2.00
2023-03-27T07:14:48.364Z,2.10
2023-03-27T07:17:20.302Z,1.98
2023-03-27T07:19:56.823Z,1.70
2023-03-27T07:22:32.092Z,2.50
2023-03-27T07:25:12.236Z,2.25
2023-03-27T07:27:47.241Z,2.00
2023-03-27T07:30:19.419Z,2.13
2023-03-27T07:32:51.598Z,2.42
2023-03-27T07:35:25.625Z,2.10
2023-03-27T07:38:35.983Z,1.75
2023-03-27T07:41:19.669Z,1.90
2023-03-27T07:44:14.637Z,1.75
2023-03-27T07:46:58.693Z,2.08
2023-03-27T07:49:40.333Z,1.95
2023-03-27T07:52:21.798Z,2.35
2023-03-27T07:55:03.310Z,2.40
2023-03-27T07:57:59.810Z,1.95
2023-03-27T08:00:35.206Z,2.03
2023-03-27T08:03:19.679Z,1.95
2023-03-27T08:05:58.285Z,2.17
2023-03-27T08:08:32.890Z,1.52
2023-03-27T08:11:09.655Z,2.10
2023-03-27T08:13:45.801Z,1.65
2023-03-27T08:16:19.316Z,2.10
2023-03-27T08:18:51.227Z,2.08
2023-03-27T08:21:23.875Z,1.45
2023-03-27T08:23:57.795Z,2.17
2023-03-27T08:26:40.487Z,2.22
2023-03-27T08:29:19.723Z,1.85
2023-03-27T08:31:52.744Z,1.95
2023-03-27T08:34:24.472Z,2.40
2023-03-27T08:36:58.000Z,2.30
2023-03-27T08:39:39.797Z,2.00
2023-03-27T08:42:19.211Z,2.20
2023-03-27T08:44:57.786Z,2.23
2023-03-27T08:47:50.514Z,2.35
2023-03-27T08:50:36.299Z,2.30
2023-03-27T08:56:13.920Z,2.50
2023-03-27T08:58:47.050Z,2.70
2023-03-27T09:01:49.342Z,13.35
2023-03-27T09:04:37.585Z,2.28
2023-03-27T09:07:19.006Z,2.28
2023-03-27T09:10:32.079Z,1.77
2023-03-27T09:13:20.898Z,1.55
2023-03-27T09:16:10.985Z,2.10
2023-03-27T09:18:56.306Z,2.03
2023-03-27T09:21:58.094Z,1.63
2023-03-27T09:24:54.233Z,1.77
2023-03-27T09:27:49.456Z,1.80
2023-03-27T09:30:33.800Z,1.45
2023-03-27T09:33:12.356Z,2.13
2023-03-27T09:35:46.698Z,1.70
2023-03-27T09:38:33.214Z,1.33
2023-03-27T09:41:13.079Z,1.35
2023-03-27T09:44:15.020Z,1.48
2023-03-27T09:46:52.336Z,1.20
2023-03-27T09:49:27.284Z,1.10
2023-03-27T09:52:02.791Z,1.55
2023-03-27T09:55:31.315Z,1.10
2023-03-27T09:58:35.455Z,1.20
2023-03-27T10:01:19.863Z,1.20
2023-03-27T10:03:59.701Z,1.20
2023-03-27T10:06:51.460Z,1.15
2023-03-27T10:09:34.867Z,0.80
2023-03-27T10:12:19.334Z,0.95
2023-03-27T10:14:53.151Z,0.93
2023-03-27T10:17:36.752Z,1.15
2023-03-27T10:20:18.713Z,1.13
2023-03-27T10:22:56.646Z,1.50
2023-03-27T10:25:38.876Z,1.00
2023-03-27T10:28:34.591Z,1.25
2023-03-27T10:31:36.400Z,1.48
2023-03-27T10:34:29.864Z,1.50
2023-03-27T10:37:24.335Z,1.23
2023-03-27T10:40:07.549Z,1.20
2023-03-27T10:42:43.992Z,1.80
2023-03-27T10:45:21.329Z,2.22
2023-03-27T10:47:59.358Z,1.50
2023-03-27T10:50:53.271Z,1.40
2023-03-27T10:53:55.009Z,1.45
2023-03-27T10:56:52.959Z,1.50
2023-03-27T10:59:55.097Z,1.55
2023-03-27T11:02:42.372Z,1.35
2023-03-27T11:05:19.395Z,1.30
2023-03-27T11:08:15.289Z,1.52
2023-03-27T11:10:49.488Z,1.50
2023-03-27T11:13:37.548Z,2.13
2023-03-27T11:16:37.258Z,1.42
2023-03-27T11:19:31.466Z,1.55
2023-03-27T11:22:33.042Z,1.60
2023-03-27T11:25:26.444Z,3.53
2023-03-27T11:28:10.962Z,1.60
2023-03-27T11:30:51.537Z,1.50
2023-03-27T11:33:29.622Z,1.40
2023-03-27T11:36:14.385Z,1.40
2023-03-27T11:39:15.402Z,1.27
2023-03-27T11:41:54.609Z,1.50
2023-03-27T11:44:30.458Z,1.60
2023-03-27T11:47:45.259Z,1.50
2023-03-27T11:50:22.871Z,1.80
2023-03-27T11:53:13.096Z,1.52
2023-03-27T11:56:45.539Z,1.50
2023-03-27T11:59:42.945Z,1.50
2023-03-27T12:02:37.783Z,1.70
2023-03-27T12:05:28.205Z,1.30
2023-03-27T12:08:10.159Z,1.63
2023-03-27T12:10:50.563Z,1.30
2023-03-27T12:13:58.137Z,2.00
2023-03-27T12:16:56.297Z,1.77
2023-03-27T12:19:46.805Z,1.98
2023-03-27T12:23:01.583Z,2.05
2023-03-27T12:25:56.586Z,2.50
2023-03-27T12:28:55.640Z,2.08
2023-03-27T12:32:22.048Z,1.88
2023-03-27T12:35:03.534Z,2.00
2023-03-27T12:37:48.788Z,2.15
2023-03-27T12:40:41.098Z,1.55
2023-03-27T12:43:27.771Z,1.95
2023-03-27T12:46:26.296Z,1.50
2023-03-27T12:49:00.870Z,1.00
2023-03-27T12:51:53.687Z,1.50
2023-03-27T12:55:06.504Z,1.08
2023-03-27T12:58:10.889Z,1.15
2023-03-27T13:04:01.484Z,0.93
2023-03-27T13:07:11.158Z,1.20
2023-03-27T13:10:47.099Z,1.20
2023-03-27T13:13:47.888Z,1.20
2023-03-27T13:16:45.257Z,1.30
2023-03-27T13:19:38.577Z,1.27
2023-03-27T13:22:24.479Z,1.08
2023-03-27T13:25:41.531Z,1.45
2023-03-27T13:28:28.915Z,1.48
2023-03-27T13:31:59.917Z,1.00
2023-03-27T13:35:17.104Z,1.10
2023-03-27T13:37:48.748Z,2.60
2023-03-27T13:40:36.806Z,1.75
2023-03-27T13:43:30.670Z,1.30
2023-03-27T13:46:29.289Z,1.40
2023-03-27T13:50:04.930Z,1.38
2023-03-27T13:53:07.882Z,3.97
2023-03-27T13:56:15.615Z,1.45
2023-03-27T13:59:47.957Z,1.50
2023-03-27T14:02:49.811Z,1.55
2023-03-27T14:05:46.468Z,1.70
2023-03-27T14:08:32.601Z,1.70
2023-03-27T14:11:38.018Z,1.20
2023-03-27T14:14:18.541Z,1.67
2023-03-27T14:17:22.220Z,1.67
2023-03-27T14:20:17.029Z,1.73
2023-03-27T14:22:54.398Z,1.65
2023-03-27T14:25:36.504Z,2.53
2023-03-27T14:28:51.683Z,1.40
2023-03-27T14:31:35.830Z,1.40
2023-03-27T14:34:25.582Z,1.65
2023-03-27T14:37:30.876Z,1.65
2023-03-27T14:40:28.136Z,1.50
2023-03-27T14:43:05.281Z,1.40
2023-03-27T14:45:40.812Z,1.38
2023-03-27T14:48:21.110Z,1.23
2023-03-27T14:51:03.266Z,1.40
2023-03-27T14:53:48.149Z,1.30
2023-03-27T14:56:29.527Z,2.08
2023-03-27T14:59:42.925Z,1.65
2023-03-27T15:02:20.653Z,1.83
2023-03-27T15:05:01.137Z,1.38
2023-03-27T15:07:35.496Z,1.52
2023-03-27T15:10:37.250Z,1.40
2023-03-27T15:13:12.026Z,1.30
2023-03-27T15:15:59.103Z,1.67
2023-03-27T15:18:58.883Z,1.40
2023-03-27T15:24:40.721Z,1.73
2023-03-27T15:27:20.086Z,1.52
2023-03-27T15:29:57.773Z,1.70
2023-03-27T15:32:42.461Z,2.03
2023-03-27T15:35:21.335Z,1.98
2023-03-27T15:37:54.118Z,1.98
2023-03-27T15:40:38.163Z,2.25
2023-03-27T15:43:13.782Z,1.65
2023-03-27T15:48:40.701Z,1.60
2023-03-27T15:51:20.415Z,2.00
2023-03-27T15:53:55.824Z,2.35
2023-03-27T15:56:43.829Z,2.00
2023-03-27T15:59:16.548Z,2.10
2023-03-27T16:01:54.176Z,2.28
2023-03-27T16:04:39.151Z,1.90
2023-03-27T16:07:25.553Z,2.00
2023-03-27T16:10:05.131Z,2.08
2023-03-27T16:12:40.759Z,2.17
2023-03-27T16:15:44.914Z,2.03
2023-03-27T16:18:25.047Z,1.95
2023-03-27T16:21:07.923Z,2.22
2023-03-27T16:23:40.756Z,2.70
2023-03-27T16:26:16.924Z,2.00
2023-03-27T16:28:52.720Z,2.03
2023-03-27T16:31:24.458Z,1.63
2023-03-27T16:33:58.333Z,2.05
2023-03-27T16:36:32.692Z,2.30
2023-03-27T16:39:04.894Z,3.22
2023-03-27T16:41:38.346Z,1.77
2023-03-27T16:44:10.020Z,3.05
2023-03-27T16:46:41.765Z,3.20
2023-03-27T16:49:13.516Z,2.90
2023-03-27T16:51:45.401Z,3.10
2023-03-27T16:54:17.135Z,3.70
2023-03-27T16:56:48.864Z,3.05
2023-03-27T16:59:20.741Z,2.58
2023-03-27T17:01:52.446Z,3.00
2023-03-27T17:04:24.589Z,2.10
2023-03-27T17:06:59.212Z,2.20
2023-03-27T17:09:32.357Z,2.05
2023-03-27T17:12:04.577Z,2.40
2023-03-27T17:14:36.371Z,2.38
2023-03-27T17:17:08.080Z,3.20
2023-03-27T17:19:42.466Z,3.30
2023-03-27T17:22:15.448Z,3.20
2023-03-27T17:24:56.236Z,3.70
2023-03-27T17:27:28.818Z,3.45
2023-03-27T19:15:46.832Z,2.80
2023-03-27T19:24:53.098Z,2.05
2023-03-27T19:27:25.802Z,2.30
2023-03-27T19:30:01.267Z,2.10
2023-03-27T19:32:33.158Z,2.30
2023-03-27T19:35:07.361Z,2.22
2023-03-27T19:37:39.399Z,2.20
2023-03-27T19:40:13.194Z,2.00
2023-03-27T19:42:45.423Z,1.80
2023-03-27T19:45:53.115Z,2.33
2023-03-27T19:48:30.782Z,3.97
2023-03-27T19:53:14.717Z,2.00
2023-03-27T19:55:46.495Z,1.70
2023-03-27T19:58:18.266Z,1.80
2023-03-27T20:00:52.585Z,2.00
2023-03-27T20:03:24.452Z,2.10
2023-03-27T20:06:07.572Z,1.88
2023-03-27T20:08:40.608Z,1.90
2023-03-27T20:11:12.427Z,2.20
2023-03-27T20:13:55.511Z,2.10
2023-03-27T20:16:29.340Z,3.10
2023-03-27T20:19:04.511Z,2.10
2023-03-27T20:21:43.525Z,2.45
2023-03-27T20:24:18.699Z,2.50
2023-03-27T20:27:02.193Z,2.55
2023-03-27T20:29:33.912Z,2.72
2023-03-27T20:32:07.595Z,2.42
2023-03-27T20:34:40.626Z,2.30
2023-03-27T20:37:17.114Z,2.13
2023-03-27T20:40:12.969Z,2.20
2023-03-27T20:42:49.315Z,2.17
2023-03-27T20:45:26.701Z,2.45
2023-03-27T20:48:03.423Z,2.33
2023-03-27T20:50:36.661Z,2.00
2023-03-27T20:53:10.434Z,1.98
2023-03-27T20:55:49.875Z,2.30
2023-03-27T20:58:37.935Z,2.28
2023-03-27T21:01:10.492Z,2.72
2023-03-27T21:03:46.317Z,2.47
2023-03-27T21:06:20.569Z,2.42
2023-03-27T21:08:52.331Z,2.53
2023-03-27T21:11:24.260Z,2.50
2023-03-27T21:13:56.186Z,2.33
2023-03-27T21:16:28.552Z,2.80
2023-03-27T21:19:00.432Z,2.35
2023-03-27T21:21:39.162Z,2.25
2023-03-27T21:24:13.756Z,2.90
2023-03-27T21:26:45.786Z,2.40
2023-03-27T21:29:17.507Z,3.90
2023-03-27T21:34:22.122Z,2.63
2023-03-27T21:36:53.861Z,2.90
2023-03-27T21:39:25.807Z,2.50
2023-03-27T21:41:57.539Z,2.50
2023-03-27T21:44:29.355Z,2.60
2023-03-27T21:47:03.858Z,2.38
2023-03-27T21:49:38.621Z,2.40
2023-03-27T21:54:49.897Z,2.25
2023-03-27T21:57:28.174Z,2.20
2023-03-27T22:00:00.341Z,2.10
2023-03-27T22:02:34.976Z,2.20
2023-03-27T22:05:07.608Z,2.33
2023-03-27T22:07:39.358Z,2.45
2023-03-27T22:10:12.150Z,2.33
2023-03-27T22:12:43.879Z,2.47
2023-03-27T22:15:15.890Z,2.50
2023-03-27T22:17:53.653Z,2.13
2023-03-27T22:20:32.013Z,2.40
2023-03-27T22:23:03.712Z,2.35
2023-03-27T22:25:35.858Z,2.10
2023-03-27T22:28:07.582Z,2.40
2023-03-27T22:30:39.302Z,2.30
2023-03-27T22:33:11.052Z,2.20
2023-03-27T22:35:48.473Z,2.78
2023-03-27T22:38:20.206Z,2.10
2023-03-27T22:40:51.964Z,2.10
2023-03-27T22:43:24.446Z,1.98
2023-03-27T22:45:56.490Z,1.95
2023-03-27T22:48:28.286Z,2.03
2023-03-27T22:51:00.589Z,1.90
2023-03-27T22:53:33.216Z,1.90
2023-03-27T22:56:07.052Z,1.63
2023-03-27T22:58:42.419Z,2.05
2023-03-27T23:03:45.974Z,2.00
2023-03-27T23:06:20.355Z,1.95
2023-03-27T23:08:52.681Z,1.65
2023-03-27T23:11:24.443Z,1.92
2023-03-27T23:13:56.153Z,2.78
2023-03-27T23:16:30.809Z,1.63
2023-03-27T23:19:02.983Z,1.48
2023-03-27T23:21:34.740Z,1.30
2023-03-27T23:24:07.974Z,1.70
2023-03-27T23:26:40.757Z,1.58
2023-03-27T23:29:12.685Z,1.80
2023-03-27T23:31:44.395Z,1.50
2023-03-27T23:34:16.126Z,1.40
2023-03-27T23:36:47.872Z,1.50
2023-03-27T23:39:19.547Z,1.35
2023-03-27T23:41:55.345Z,1.67
2023-03-27T23:44:30.278Z,1.63
2023-03-27T23:47:02.079Z,2.15
2023-03-27T23:49:34.099Z,1.40
2023-03-27T23:52:05.982Z,2.22
2023-03-27T23:54:37.933Z,1.40
2023-03-27T23:57:10.752Z,1.13
2023-03-27T23:59:42.524Z,1.10
